sensor_id;sensor_type;location;lat;lon;timestamp;temperature;humidity
25871;DHT22;13689;48.590;7.752;2024-02-23T00:02:15;10.00;84.60
25871;DHT22;13689;48.590;7.752;2024-02-23T00:04:41;10.00;83.50
25871;DHT22;13689;48.590;7.752;2024-02-23T00:07:07;10.00;83.20
25871;DHT22;13689;48.590;7.752;2024-02-23T00:09:33;10.00;82.90
25871;DHT22;13689;48.590;7.752;2024-02-23T00:11:59;10.10;82.90
25871;DHT22;13689;48.590;7.752;2024-02-23T00:14:24;10.10;82.60
25871;DHT22;13689;48.590;7.752;2024-02-23T00:16:51;10.10;82.30
25871;DHT22;13689;48.590;7.752;2024-02-23T00:19:16;10.10;82.30
25871;DHT22;13689;48.590;7.752;2024-02-23T00:21:44;10.20;82.10
25871;DHT22;13689;48.590;7.752;2024-02-23T00:24:15;10.10;81.90
25871;DHT22;13689;48.590;7.752;2024-02-23T00:26:42;10.10;81.70
25871;DHT22;13689;48.590;7.752;2024-02-23T00:29:07;10.20;81.50
25871;DHT22;13689;48.590;7.752;2024-02-23T00:31:33;10.10;81.50
25871;DHT22;13689;48.590;7.752;2024-02-23T00:33:59;10.20;81.50
25871;DHT22;13689;48.590;7.752;2024-02-23T00:36:24;10.20;81.30
25871;DHT22;13689;48.590;7.752;2024-02-23T00:38:50;10.20;81.00
25871;DHT22;13689;48.590;7.752;2024-02-23T00:41:16;10.10;80.90
25871;DHT22;13689;48.590;7.752;2024-02-23T00:43:41;10.10;81.00
25871;DHT22;13689;48.590;7.752;2024-02-23T00:46:08;10.10;80.90
25871;DHT22;13689;48.590;7.752;2024-02-23T00:48:34;10.10;80.80
25871;DHT22;13689;48.590;7.752;2024-02-23T00:51:01;10.10;80.90
25871;DHT22;13689;48.590;7.752;2024-02-23T00:53:28;10.10;80.70
25871;DHT22;13689;48.590;7.752;2024-02-23T00:55:54;10.00;80.80
25871;DHT22;13689;48.590;7.752;2024-02-23T00:58:19;9.90;80.50
25871;DHT22;13689;48.590;7.752;2024-02-23T01:00:45;9.80;80.70
25871;DHT22;13689;48.590;7.752;2024-02-23T01:03:10;9.80;80.90
25871;DHT22;13689;48.590;7.752;2024-02-23T01:05:36;9.70;80.90
25871;DHT22;13689;48.590;7.752;2024-02-23T01:08:03;9.60;81.10
25871;DHT22;13689;48.590;7.752;2024-02-23T01:10:29;9.60;81.30
25871;DHT22;13689;48.590;7.752;2024-02-23T01:12:55;9.50;81.40
25871;DHT22;13689;48.590;7.752;2024-02-23T01:15:20;9.50;81.50
25871;DHT22;13689;48.590;7.752;2024-02-23T01:17:46;9.50;81.50
25871;DHT22;13689;48.590;7.752;2024-02-23T01:20:11;9.60;81.70
25871;DHT22;13689;48.590;7.752;2024-02-23T01:22:37;9.60;81.60
25871;DHT22;13689;48.590;7.752;2024-02-23T01:25:04;9.60;81.30
25871;DHT22;13689;48.590;7.752;2024-02-23T01:27:29;9.60;81.40
25871;DHT22;13689;48.590;7.752;2024-02-23T01:29:55;9.60;81.30
25871;DHT22;13689;48.590;7.752;2024-02-23T01:32:20;9.70;81.10
25871;DHT22;13689;48.590;7.752;2024-02-23T01:34:46;9.70;81.00
25871;DHT22;13689;48.590;7.752;2024-02-23T01:37:12;9.60;80.60
25871;DHT22;13689;48.590;7.752;2024-02-23T01:39:37;9.60;80.60
25871;DHT22;13689;48.590;7.752;2024-02-23T01:42:03;9.60;80.50
25871;DHT22;13689;48.590;7.752;2024-02-23T01:44:29;9.60;80.10
25871;DHT22;13689;48.590;7.752;2024-02-23T01:46:54;9.60;80.10
25871;DHT22;13689;48.590;7.752;2024-02-23T01:49:20;9.60;79.80
25871;DHT22;13689;48.590;7.752;2024-02-23T01:51:48;9.50;79.60
25871;DHT22;13689;48.590;7.752;2024-02-23T01:54:16;9.50;79.50
25871;DHT22;13689;48.590;7.752;2024-02-23T01:56:42;9.50;79.20
25871;DHT22;13689;48.590;7.752;2024-02-23T01:59:10;9.50;79.00
25871;DHT22;13689;48.590;7.752;2024-02-23T02:01:36;9.40;79.00
25871;DHT22;13689;48.590;7.752;2024-02-23T02:04:01;9.50;79.00
25871;DHT22;13689;48.590;7.752;2024-02-23T02:06:27;9.50;78.60
25871;DHT22;13689;48.590;7.752;2024-02-23T02:08:53;9.40;78.30
25871;DHT22;13689;48.590;7.752;2024-02-23T02:11:19;9.50;78.20
25871;DHT22;13689;48.590;7.752;2024-02-23T02:13:45;9.50;77.90
25871;DHT22;13689;48.590;7.752;2024-02-23T02:16:11;9.50;77.60
25871;DHT22;13689;48.590;7.752;2024-02-23T02:18:36;9.50;77.40
25871;DHT22;13689;48.590;7.752;2024-02-23T02:21:02;9.40;77.20
25871;DHT22;13689;48.590;7.752;2024-02-23T02:23:28;9.50;77.00
25871;DHT22;13689;48.590;7.752;2024-02-23T02:25:57;9.50;76.60
25871;DHT22;13689;48.590;7.752;2024-02-23T02:28:24;9.40;76.50
25871;DHT22;13689;48.590;7.752;2024-02-23T02:30:53;9.50;76.30
25871;DHT22;13689;48.590;7.752;2024-02-23T02:33:19;9.40;76.00
25871;DHT22;13689;48.590;7.752;2024-02-23T02:35:44;9.40;75.60
25871;DHT22;13689;48.590;7.752;2024-02-23T02:38:10;9.40;75.30
25871;DHT22;13689;48.590;7.752;2024-02-23T02:40:36;9.40;75.10
25871;DHT22;13689;48.590;7.752;2024-02-23T02:43:03;9.40;75.00
25871;DHT22;13689;48.590;7.752;2024-02-23T02:45:28;9.40;74.80
25871;DHT22;13689;48.590;7.752;2024-02-23T02:47:54;9.40;74.30
25871;DHT22;13689;48.590;7.752;2024-02-23T02:50:20;9.40;74.20
25871;DHT22;13689;48.590;7.752;2024-02-23T02:52:46;9.30;74.00
25871;DHT22;13689;48.590;7.752;2024-02-23T02:55:12;9.30;74.00
25871;DHT22;13689;48.590;7.752;2024-02-23T02:57:38;9.20;73.80
25871;DHT22;13689;48.590;7.752;2024-02-23T03:00:04;9.20;73.70
25871;DHT22;13689;48.590;7.752;2024-02-23T03:02:33;9.20;73.50
25871;DHT22;13689;48.590;7.752;2024-02-23T03:04:59;9.10;73.30
25871;DHT22;13689;48.590;7.752;2024-02-23T03:07:24;9.10;73.30
25871;DHT22;13689;48.590;7.752;2024-02-23T03:09:50;9.00;73.10
25871;DHT22;13689;48.590;7.752;2024-02-23T03:12:16;9.00;73.00
25871;DHT22;13689;48.590;7.752;2024-02-23T03:14:44;9.00;73.00
25871;DHT22;13689;48.590;7.752;2024-02-23T03:17:10;8.90;72.90
25871;DHT22;13689;48.590;7.752;2024-02-23T03:19:36;8.90;72.80
25871;DHT22;13689;48.590;7.752;2024-02-23T03:22:02;8.80;72.40
25871;DHT22;13689;48.590;7.752;2024-02-23T03:24:27;8.80;72.30
25871;DHT22;13689;48.590;7.752;2024-02-23T03:26:53;8.80;72.30
25871;DHT22;13689;48.590;7.752;2024-02-23T03:29:19;8.80;72.20
25871;DHT22;13689;48.590;7.752;2024-02-23T03:31:45;8.80;72.20
25871;DHT22;13689;48.590;7.752;2024-02-23T03:34:11;8.80;72.20
25871;DHT22;13689;48.590;7.752;2024-02-23T03:36:38;8.80;73.10
25871;DHT22;13689;48.590;7.752;2024-02-23T03:39:04;8.80;72.20
25871;DHT22;13689;48.590;7.752;2024-02-23T03:41:29;8.80;72.10
25871;DHT22;13689;48.590;7.752;2024-02-23T03:43:55;8.90;72.10
25871;DHT22;13689;48.590;7.752;2024-02-23T03:46:23;8.80;72.10
25871;DHT22;13689;48.590;7.752;2024-02-23T03:48:48;8.90;71.90
25871;DHT22;13689;48.590;7.752;2024-02-23T03:51:14;8.80;71.90
25871;DHT22;13689;48.590;7.752;2024-02-23T03:53:40;8.80;72.10
25871;DHT22;13689;48.590;7.752;2024-02-23T03:56:06;8.80;72.20
25871;DHT22;13689;48.590;7.752;2024-02-23T03:58:32;8.70;72.20
25871;DHT22;13689;48.590;7.752;2024-02-23T04:00:57;8.70;72.30
25871;DHT22;13689;48.590;7.752;2024-02-23T04:03:23;8.60;72.40
25871;DHT22;13689;48.590;7.752;2024-02-23T04:05:49;8.60;72.40
25871;DHT22;13689;48.590;7.752;2024-02-23T04:08:14;8.60;72.50
25871;DHT22;13689;48.590;7.752;2024-02-23T04:10:40;8.50;72.50
25871;DHT22;13689;48.590;7.752;2024-02-23T04:13:05;8.50;72.70
25871;DHT22;13689;48.590;7.752;2024-02-23T04:15:32;8.50;72.60
25871;DHT22;13689;48.590;7.752;2024-02-23T04:17:58;8.50;72.60
25871;DHT22;13689;48.590;7.752;2024-02-23T04:20:23;8.50;72.60
25871;DHT22;13689;48.590;7.752;2024-02-23T04:22:49;8.50;72.60
25871;DHT22;13689;48.590;7.752;2024-02-23T04:25:14;8.40;72.50
25871;DHT22;13689;48.590;7.752;2024-02-23T04:27:41;8.40;72.50
25871;DHT22;13689;48.590;7.752;2024-02-23T04:30:07;8.40;72.50
25871;DHT22;13689;48.590;7.752;2024-02-23T04:32:33;8.40;72.30
25871;DHT22;13689;48.590;7.752;2024-02-23T04:34:59;8.40;72.10
25871;DHT22;13689;48.590;7.752;2024-02-23T04:37:24;8.40;72.00
25871;DHT22;13689;48.590;7.752;2024-02-23T04:39:50;8.40;71.80
25871;DHT22;13689;48.590;7.752;2024-02-23T04:42:15;8.40;71.50
25871;DHT22;13689;48.590;7.752;2024-02-23T04:44:41;8.40;71.40
25871;DHT22;13689;48.590;7.752;2024-02-23T04:47:08;8.50;71.30
25871;DHT22;13689;48.590;7.752;2024-02-23T04:49:34;8.50;71.30
25871;DHT22;13689;48.590;7.752;2024-02-23T04:52:00;8.40;70.70
25871;DHT22;13689;48.590;7.752;2024-02-23T04:54:25;8.40;70.70
25871;DHT22;13689;48.590;7.752;2024-02-23T04:56:51;8.50;70.80
25871;DHT22;13689;48.590;7.752;2024-02-23T04:59:17;8.50;70.60
25871;DHT22;13689;48.590;7.752;2024-02-23T05:01:42;8.60;70.60
25871;DHT22;13689;48.590;7.752;2024-02-23T05:04:08;8.60;70.50
25871;DHT22;13689;48.590;7.752;2024-02-23T05:06:34;8.70;70.50
25871;DHT22;13689;48.590;7.752;2024-02-23T05:09:01;8.60;70.40
25871;DHT22;13689;48.590;7.752;2024-02-23T05:11:27;8.70;70.40
25871;DHT22;13689;48.590;7.752;2024-02-23T05:13:52;8.60;70.40
25871;DHT22;13689;48.590;7.752;2024-02-23T05:16:18;8.60;70.30
25871;DHT22;13689;48.590;7.752;2024-02-23T05:18:44;8.70;70.30
25871;DHT22;13689;48.590;7.752;2024-02-23T05:21:12;8.70;70.30
25871;DHT22;13689;48.590;7.752;2024-02-23T05:23:37;8.70;70.30
25871;DHT22;13689;48.590;7.752;2024-02-23T05:26:03;8.60;70.30
25871;DHT22;13689;48.590;7.752;2024-02-23T05:28:29;8.60;70.20
25871;DHT22;13689;48.590;7.752;2024-02-23T05:30:55;8.60;69.90
25871;DHT22;13689;48.590;7.752;2024-02-23T05:33:22;8.40;69.40
25871;DHT22;13689;48.590;7.752;2024-02-23T05:35:51;8.30;69.90
25871;DHT22;13689;48.590;7.752;2024-02-23T05:38:17;8.40;70.10
25871;DHT22;13689;48.590;7.752;2024-02-23T05:40:43;8.40;70.00
25871;DHT22;13689;48.590;7.752;2024-02-23T05:43:09;8.40;70.10
25871;DHT22;13689;48.590;7.752;2024-02-23T05:45:34;8.30;70.00
25871;DHT22;13689;48.590;7.752;2024-02-23T05:48:00;8.30;70.10
25871;DHT22;13689;48.590;7.752;2024-02-23T05:50:25;8.30;70.20
25871;DHT22;13689;48.590;7.752;2024-02-23T05:52:52;8.20;70.20
25871;DHT22;13689;48.590;7.752;2024-02-23T05:55:21;8.20;70.20
25871;DHT22;13689;48.590;7.752;2024-02-23T05:57:46;8.20;70.50
25871;DHT22;13689;48.590;7.752;2024-02-23T06:00:12;8.20;70.50
25871;DHT22;13689;48.590;7.752;2024-02-23T06:02:38;8.10;70.50
25871;DHT22;13689;48.590;7.752;2024-02-23T06:05:05;8.10;70.50
25871;DHT22;13689;48.590;7.752;2024-02-23T06:07:33;8.00;70.60
25871;DHT22;13689;48.590;7.752;2024-02-23T06:09:59;8.00;70.80
25871;DHT22;13689;48.590;7.752;2024-02-23T06:12:24;8.00;70.90
25871;DHT22;13689;48.590;7.752;2024-02-23T06:14:51;8.00;71.10
25871;DHT22;13689;48.590;7.752;2024-02-23T06:17:17;7.90;71.30
25871;DHT22;13689;48.590;7.752;2024-02-23T06:19:43;7.90;71.50
25871;DHT22;13689;48.590;7.752;2024-02-23T06:22:09;7.90;72.00
25871;DHT22;13689;48.590;7.752;2024-02-23T06:24:36;7.90;72.10
25871;DHT22;13689;48.590;7.752;2024-02-23T06:27:02;7.90;72.30
25871;DHT22;13689;48.590;7.752;2024-02-23T06:29:29;7.90;72.60
25871;DHT22;13689;48.590;7.752;2024-02-23T06:31:55;7.90;72.90
25871;DHT22;13689;48.590;7.752;2024-02-23T06:34:21;7.80;73.10
25871;DHT22;13689;48.590;7.752;2024-02-23T06:36:47;7.90;73.30
25871;DHT22;13689;48.590;7.752;2024-02-23T06:39:12;7.80;73.50
25871;DHT22;13689;48.590;7.752;2024-02-23T06:41:38;7.80;73.90
25871;DHT22;13689;48.590;7.752;2024-02-23T06:44:04;7.80;74.10
25871;DHT22;13689;48.590;7.752;2024-02-23T06:46:30;7.80;74.50
25871;DHT22;13689;48.590;7.752;2024-02-23T06:48:56;7.80;74.80
25871;DHT22;13689;48.590;7.752;2024-02-23T06:51:21;7.70;75.00
25871;DHT22;13689;48.590;7.752;2024-02-23T06:53:47;7.70;75.70
25871;DHT22;13689;48.590;7.752;2024-02-23T06:56:13;7.70;75.80
25871;DHT22;13689;48.590;7.752;2024-02-23T06:58:38;7.70;76.00
25871;DHT22;13689;48.590;7.752;2024-02-23T07:01:04;7.70;76.50
25871;DHT22;13689;48.590;7.752;2024-02-23T07:03:35;7.80;76.70
25871;DHT22;13689;48.590;7.752;2024-02-23T07:06:00;7.80;76.70
25871;DHT22;13689;48.590;7.752;2024-02-23T07:08:26;7.80;76.80
25871;DHT22;13689;48.590;7.752;2024-02-23T07:10:52;7.90;77.10
25871;DHT22;13689;48.590;7.752;2024-02-23T07:13:17;7.90;77.20
25871;DHT22;13689;48.590;7.752;2024-02-23T07:15:44;8.00;77.10
25871;DHT22;13689;48.590;7.752;2024-02-23T07:18:10;8.10;77.00
25871;DHT22;13689;48.590;7.752;2024-02-23T07:20:36;8.10;77.00
25871;DHT22;13689;48.590;7.752;2024-02-23T07:23:02;8.20;77.10
25871;DHT22;13689;48.590;7.752;2024-02-23T07:25:28;8.20;77.10
25871;DHT22;13689;48.590;7.752;2024-02-23T07:27:54;8.20;76.70
25871;DHT22;13689;48.590;7.752;2024-02-23T07:30:19;8.30;77.10
25871;DHT22;13689;48.590;7.752;2024-02-23T07:32:45;8.30;76.90
25871;DHT22;13689;48.590;7.752;2024-02-23T07:35:14;8.30;77.00
25871;DHT22;13689;48.590;7.752;2024-02-23T07:37:39;8.30;76.40
25871;DHT22;13689;48.590;7.752;2024-02-23T07:40:06;8.30;76.50
25871;DHT22;13689;48.590;7.752;2024-02-23T07:42:32;8.20;76.80
25871;DHT22;13689;48.590;7.752;2024-02-23T07:44:58;8.30;77.00
25871;DHT22;13689;48.590;7.752;2024-02-23T07:47:24;8.20;76.70
25871;DHT22;13689;48.590;7.752;2024-02-23T07:49:51;8.40;77.10
25871;DHT22;13689;48.590;7.752;2024-02-23T07:52:20;8.50;77.00
25871;DHT22;13689;48.590;7.752;2024-02-23T07:54:48;8.60;76.80
25871;DHT22;13689;48.590;7.752;2024-02-23T07:57:14;8.70;76.60
25871;DHT22;13689;48.590;7.752;2024-02-23T07:59:42;8.80;76.50
25871;DHT22;13689;48.590;7.752;2024-02-23T08:02:07;8.80;76.30
25871;DHT22;13689;48.590;7.752;2024-02-23T08:04:33;8.90;76.30
25871;DHT22;13689;48.590;7.752;2024-02-23T08:06:59;9.00;76.10
25871;DHT22;13689;48.590;7.752;2024-02-23T08:09:25;9.00;75.80
25871;DHT22;13689;48.590;7.752;2024-02-23T08:11:51;9.00;75.80
25871;DHT22;13689;48.590;7.752;2024-02-23T08:14:16;9.00;75.70
25871;DHT22;13689;48.590;7.752;2024-02-23T08:16:42;9.00;75.50
25871;DHT22;13689;48.590;7.752;2024-02-23T08:19:08;9.00;75.30
25871;DHT22;13689;48.590;7.752;2024-02-23T08:21:33;9.00;75.50
25871;DHT22;13689;48.590;7.752;2024-02-23T08:23:59;9.10;75.30
25871;DHT22;13689;48.590;7.752;2024-02-23T08:26:25;9.10;75.00
25871;DHT22;13689;48.590;7.752;2024-02-23T08:28:50;9.10;75.20
25871;DHT22;13689;48.590;7.752;2024-02-23T08:31:16;9.20;75.20
25871;DHT22;13689;48.590;7.752;2024-02-23T08:33:42;9.30;74.90
25871;DHT22;13689;48.590;7.752;2024-02-23T08:36:08;9.40;74.70
25871;DHT22;13689;48.590;7.752;2024-02-23T08:38:33;9.40;74.60
25871;DHT22;13689;48.590;7.752;2024-02-23T08:40:59;9.50;74.70
25871;DHT22;13689;48.590;7.752;2024-02-23T08:43:25;9.60;74.60
25871;DHT22;13689;48.590;7.752;2024-02-23T08:45:50;9.70;74.30
25871;DHT22;13689;48.590;7.752;2024-02-23T08:48:17;9.60;73.80
25871;DHT22;13689;48.590;7.752;2024-02-23T08:50:43;9.60;73.80
25871;DHT22;13689;48.590;7.752;2024-02-23T08:53:09;9.60;74.00
25871;DHT22;13689;48.590;7.752;2024-02-23T08:55:35;9.90;74.10
25871;DHT22;13689;48.590;7.752;2024-02-23T08:58:00;11.10;74.00
25871;DHT22;13689;48.590;7.752;2024-02-23T09:00:26;11.20;72.10
25871;DHT22;13689;48.590;7.752;2024-02-23T09:02:52;11.00;71.50
25871;DHT22;13689;48.590;7.752;2024-02-23T09:05:17;10.80;71.80
25871;DHT22;13689;48.590;7.752;2024-02-23T09:07:43;10.90;72.30
25871;DHT22;13689;48.590;7.752;2024-02-23T09:10:10;11.40;72.50
25871;DHT22;13689;48.590;7.752;2024-02-23T09:12:37;12.50;71.90
25871;DHT22;13689;48.590;7.752;2024-02-23T09:15:03;12.90;69.60
25871;DHT22;13689;48.590;7.752;2024-02-23T09:17:28;13.00;68.60
25871;DHT22;13689;48.590;7.752;2024-02-23T09:19:54;12.90;68.20
25871;DHT22;13689;48.590;7.752;2024-02-23T09:22:19;13.50;68.10
25871;DHT22;13689;48.590;7.752;2024-02-23T09:24:45;14.50;66.90
25871;DHT22;13689;48.590;7.752;2024-02-23T09:27:11;15.20;65.10
25871;DHT22;13689;48.590;7.752;2024-02-23T09:29:37;15.90;63.40
25871;DHT22;13689;48.590;7.752;2024-02-23T09:32:03;16.20;61.20
25871;DHT22;13689;48.590;7.752;2024-02-23T09:34:30;16.60;59.90
25871;DHT22;13689;48.590;7.752;2024-02-23T09:36:56;16.90;59.40
25871;DHT22;13689;48.590;7.752;2024-02-23T09:39:21;17.10;58.60
25871;DHT22;13689;48.590;7.752;2024-02-23T09:41:50;17.20;58.10
25871;DHT22;13689;48.590;7.752;2024-02-23T09:44:16;17.20;58.10
25871;DHT22;13689;48.590;7.752;2024-02-23T09:46:43;17.20;57.70
25871;DHT22;13689;48.590;7.752;2024-02-23T09:49:11;16.60;57.50
25871;DHT22;13689;48.590;7.752;2024-02-23T09:51:38;16.30;57.50
25871;DHT22;13689;48.590;7.752;2024-02-23T09:54:04;16.50;56.60
25871;DHT22;13689;48.590;7.752;2024-02-23T09:56:30;16.70;56.80
25871;DHT22;13689;48.590;7.752;2024-02-23T09:58:59;16.80;55.80
25871;DHT22;13689;48.590;7.752;2024-02-23T10:01:31;16.50;56.00
25871;DHT22;13689;48.590;7.752;2024-02-23T10:04:00;16.30;56.10
25871;DHT22;13689;48.590;7.752;2024-02-23T10:06:26;16.00;56.10
25871;DHT22;13689;48.590;7.752;2024-02-23T10:08:52;15.20;55.50
25871;DHT22;13689;48.590;7.752;2024-02-23T10:11:20;14.40;55.70
25871;DHT22;13689;48.590;7.752;2024-02-23T10:13:47;14.80;56.40
25871;DHT22;13689;48.590;7.752;2024-02-23T10:16:15;15.70;56.10
25871;DHT22;13689;48.590;7.752;2024-02-23T10:18:41;16.50;55.30
25871;DHT22;13689;48.590;7.752;2024-02-23T10:21:07;17.10;54.40
25871;DHT22;13689;48.590;7.752;2024-02-23T10:23:33;17.60;53.90
25871;DHT22;13689;48.590;7.752;2024-02-23T10:25:58;18.00;53.50
25871;DHT22;13689;48.590;7.752;2024-02-23T10:28:24;18.30;52.60
25871;DHT22;13689;48.590;7.752;2024-02-23T10:30:50;18.40;51.90
25871;DHT22;13689;48.590;7.752;2024-02-23T10:33:15;18.20;50.90
25871;DHT22;13689;48.590;7.752;2024-02-23T10:35:44;18.40;51.30
25871;DHT22;13689;48.590;7.752;2024-02-23T10:38:12;18.60;50.70
25871;DHT22;13689;48.590;7.752;2024-02-23T10:40:42;18.30;50.20
25871;DHT22;13689;48.590;7.752;2024-02-23T10:43:16;17.60;50.00
25871;DHT22;13689;48.590;7.752;2024-02-23T10:45:45;17.10;50.50
25871;DHT22;13689;48.590;7.752;2024-02-23T10:48:11;16.70;50.70
25871;DHT22;13689;48.590;7.752;2024-02-23T10:50:37;16.20;50.80
25871;DHT22;13689;48.590;7.752;2024-02-23T10:53:07;15.90;50.70
25871;DHT22;13689;48.590;7.752;2024-02-23T10:55:37;15.30;50.70
25871;DHT22;13689;48.590;7.752;2024-02-23T10:58:06;14.70;51.40
25871;DHT22;13689;48.590;7.752;2024-02-23T11:00:34;14.30;51.80
25871;DHT22;13689;48.590;7.752;2024-02-23T11:03:00;14.10;52.10
25871;DHT22;13689;48.590;7.752;2024-02-23T11:05:27;13.80;52.30
25871;DHT22;13689;48.590;7.752;2024-02-23T11:07:56;13.70;52.70
25871;DHT22;13689;48.590;7.752;2024-02-23T11:10:22;13.60;52.70
25871;DHT22;13689;48.590;7.752;2024-02-23T11:12:57;13.40;52.80
25871;DHT22;13689;48.590;7.752;2024-02-23T11:15:28;13.30;53.30
25871;DHT22;13689;48.590;7.752;2024-02-23T11:17:54;13.40;53.60
25871;DHT22;13689;48.590;7.752;2024-02-23T11:20:21;13.60;53.70
25871;DHT22;13689;48.590;7.752;2024-02-23T11:22:54;13.80;53.70
25871;DHT22;13689;48.590;7.752;2024-02-23T11:25:20;13.90;53.50
25871;DHT22;13689;48.590;7.752;2024-02-23T11:27:51;13.80;53.40
25871;DHT22;13689;48.590;7.752;2024-02-23T11:30:17;13.80;53.40
25871;DHT22;13689;48.590;7.752;2024-02-23T11:32:47;13.90;53.60
25871;DHT22;13689;48.590;7.752;2024-02-23T11:35:17;14.00;53.40
25871;DHT22;13689;48.590;7.752;2024-02-23T11:37:53;14.00;53.40
25871;DHT22;13689;48.590;7.752;2024-02-23T11:40:30;13.90;53.40
25871;DHT22;13689;48.590;7.752;2024-02-23T11:42:56;13.70;53.50
25871;DHT22;13689;48.590;7.752;2024-02-23T11:45:23;13.70;53.80
25871;DHT22;13689;48.590;7.752;2024-02-23T11:47:49;13.70;53.70
25871;DHT22;13689;48.590;7.752;2024-02-23T11:50:14;13.50;53.70
25871;DHT22;13689;48.590;7.752;2024-02-23T11:52:46;13.40;53.70
25871;DHT22;13689;48.590;7.752;2024-02-23T11:55:12;13.30;53.90
25871;DHT22;13689;48.590;7.752;2024-02-23T11:57:39;13.30;54.20
25871;DHT22;13689;48.590;7.752;2024-02-23T12:00:07;13.40;54.20
25871;DHT22;13689;48.590;7.752;2024-02-23T12:02:37;13.50;54.00
25871;DHT22;13689;48.590;7.752;2024-02-23T12:05:03;13.50;53.80
25871;DHT22;13689;48.590;7.752;2024-02-23T12:07:29;13.50;53.50
25871;DHT22;13689;48.590;7.752;2024-02-23T12:09:59;13.50;53.20
25871;DHT22;13689;48.590;7.752;2024-02-23T12:12:27;13.40;53.00
25871;DHT22;13689;48.590;7.752;2024-02-23T12:14:53;13.40;52.90
25871;DHT22;13689;48.590;7.752;2024-02-23T12:17:19;13.40;52.40
25871;DHT22;13689;48.590;7.752;2024-02-23T12:19:45;13.40;52.40
25871;DHT22;13689;48.590;7.752;2024-02-23T12:22:11;13.40;52.30
25871;DHT22;13689;48.590;7.752;2024-02-23T12:24:37;13.40;52.10
25871;DHT22;13689;48.590;7.752;2024-02-23T12:27:03;13.40;51.60
25871;DHT22;13689;48.590;7.752;2024-02-23T12:29:30;13.40;51.50
25871;DHT22;13689;48.590;7.752;2024-02-23T12:32:06;13.30;51.10
25871;DHT22;13689;48.590;7.752;2024-02-23T12:34:32;13.30;50.90
25871;DHT22;13689;48.590;7.752;2024-02-23T12:36:58;13.40;51.10
25871;DHT22;13689;48.590;7.752;2024-02-23T12:39:24;13.40;51.00
25871;DHT22;13689;48.590;7.752;2024-02-23T12:41:49;13.50;51.00
25871;DHT22;13689;48.590;7.752;2024-02-23T12:44:16;13.50;50.60
25871;DHT22;13689;48.590;7.752;2024-02-23T12:46:41;13.40;50.40
25871;DHT22;13689;48.590;7.752;2024-02-23T12:49:07;13.40;50.60
25871;DHT22;13689;48.590;7.752;2024-02-23T12:51:33;13.30;50.60
25871;DHT22;13689;48.590;7.752;2024-02-23T12:54:00;13.30;50.70
25871;DHT22;13689;48.590;7.752;2024-02-23T12:56:26;13.20;50.70
25871;DHT22;13689;48.590;7.752;2024-02-23T12:58:51;13.10;50.80
25871;DHT22;13689;48.590;7.752;2024-02-23T13:01:19;13.00;51.00
25871;DHT22;13689;48.590;7.752;2024-02-23T13:03:45;13.00;50.80
25871;DHT22;13689;48.590;7.752;2024-02-23T13:06:11;12.80;51.20
25871;DHT22;13689;48.590;7.752;2024-02-23T13:08:36;12.70;50.50
25871;DHT22;13689;48.590;7.752;2024-02-23T13:11:04;12.50;50.30
25871;DHT22;13689;48.590;7.752;2024-02-23T13:13:29;12.40;50.40
25871;DHT22;13689;48.590;7.752;2024-02-23T13:15:55;12.30;50.50
25871;DHT22;13689;48.590;7.752;2024-02-23T13:18:22;12.30;50.70
25871;DHT22;13689;48.590;7.752;2024-02-23T13:20:48;12.20;50.70
25871;DHT22;13689;48.590;7.752;2024-02-23T13:23:13;12.20;50.80
25871;DHT22;13689;48.590;7.752;2024-02-23T13:25:41;12.20;50.90
25871;DHT22;13689;48.590;7.752;2024-02-23T13:28:07;12.10;51.00
25871;DHT22;13689;48.590;7.752;2024-02-23T13:30:34;12.10;51.20
25871;DHT22;13689;48.590;7.752;2024-02-23T13:33:00;12.20;51.20
25871;DHT22;13689;48.590;7.752;2024-02-23T13:35:26;12.30;50.90
25871;DHT22;13689;48.590;7.752;2024-02-23T13:37:52;12.40;50.80
25871;DHT22;13689;48.590;7.752;2024-02-23T13:40:18;12.60;50.60
25871;DHT22;13689;48.590;7.752;2024-02-23T13:42:44;12.70;50.40
25871;DHT22;13689;48.590;7.752;2024-02-23T13:45:15;12.80;50.30
25871;DHT22;13689;48.590;7.752;2024-02-23T13:47:41;12.80;50.20
25871;DHT22;13689;48.590;7.752;2024-02-23T13:50:07;12.80;50.10
25871;DHT22;13689;48.590;7.752;2024-02-23T13:52:33;12.70;50.20
25871;DHT22;13689;48.590;7.752;2024-02-23T13:55:00;12.60;50.20
25871;DHT22;13689;48.590;7.752;2024-02-23T13:57:26;12.40;50.20
25871;DHT22;13689;48.590;7.752;2024-02-23T13:59:51;12.30;50.30
25871;DHT22;13689;48.590;7.752;2024-02-23T14:02:25;12.30;50.60
25871;DHT22;13689;48.590;7.752;2024-02-23T14:04:51;12.30;50.70
25871;DHT22;13689;48.590;7.752;2024-02-23T14:07:19;12.30;50.80
25871;DHT22;13689;48.590;7.752;2024-02-23T14:09:44;12.30;50.90
25871;DHT22;13689;48.590;7.752;2024-02-23T14:12:10;12.30;51.00
25871;DHT22;13689;48.590;7.752;2024-02-23T14:14:36;12.30;51.00
25871;DHT22;13689;48.590;7.752;2024-02-23T14:17:01;12.40;51.00
25871;DHT22;13689;48.590;7.752;2024-02-23T14:19:27;12.40;51.00
25871;DHT22;13689;48.590;7.752;2024-02-23T14:21:52;12.40;51.00
25871;DHT22;13689;48.590;7.752;2024-02-23T14:24:18;12.40;51.00
25871;DHT22;13689;48.590;7.752;2024-02-23T14:26:44;12.40;51.00
25871;DHT22;13689;48.590;7.752;2024-02-23T14:29:10;12.30;51.00
25871;DHT22;13689;48.590;7.752;2024-02-23T14:31:36;12.30;51.70
25871;DHT22;13689;48.590;7.752;2024-02-23T14:34:01;12.40;51.10
25871;DHT22;13689;48.590;7.752;2024-02-23T14:36:27;12.40;51.00
25871;DHT22;13689;48.590;7.752;2024-02-23T14:38:54;12.40;51.00
25871;DHT22;13689;48.590;7.752;2024-02-23T14:41:20;12.40;51.00
25871;DHT22;13689;48.590;7.752;2024-02-23T14:43:45;12.30;50.90
25871;DHT22;13689;48.590;7.752;2024-02-23T14:46:11;12.20;51.00
25871;DHT22;13689;48.590;7.752;2024-02-23T14:48:36;12.20;51.10
25871;DHT22;13689;48.590;7.752;2024-02-23T14:51:02;12.10;51.10
25871;DHT22;13689;48.590;7.752;2024-02-23T14:53:30;12.10;51.20
25871;DHT22;13689;48.590;7.752;2024-02-23T14:55:55;12.20;51.30
25871;DHT22;13689;48.590;7.752;2024-02-23T14:58:21;12.20;51.30
25871;DHT22;13689;48.590;7.752;2024-02-23T15:00:46;12.20;51.20
25871;DHT22;13689;48.590;7.752;2024-02-23T15:03:12;12.20;51.30
25871;DHT22;13689;48.590;7.752;2024-02-23T15:05:38;12.20;51.30
25871;DHT22;13689;48.590;7.752;2024-02-23T15:08:04;12.10;51.20
25871;DHT22;13689;48.590;7.752;2024-02-23T15:10:30;12.10;51.20
25871;DHT22;13689;48.590;7.752;2024-02-23T15:12:55;12.10;51.20
25871;DHT22;13689;48.590;7.752;2024-02-23T15:15:22;12.00;51.30
25871;DHT22;13689;48.590;7.752;2024-02-23T15:17:47;12.00;51.40
25871;DHT22;13689;48.590;7.752;2024-02-23T15:20:14;12.00;51.60
25871;DHT22;13689;48.590;7.752;2024-02-23T15:22:40;11.90;51.60
25871;DHT22;13689;48.590;7.752;2024-02-23T15:25:08;11.90;51.70
25871;DHT22;13689;48.590;7.752;2024-02-23T15:27:35;11.80;51.90
25871;DHT22;13689;48.590;7.752;2024-02-23T15:30:01;11.80;52.00
25871;DHT22;13689;48.590;7.752;2024-02-23T15:32:27;11.70;52.10